createdAt,value
2018-05-09T11:23:52.258Z,26.04
2018-05-09T11:24:51.977Z,26.13
2018-05-09T11:26:16.868Z,26.00
2018-05-09T11:27:16.888Z,25.98
2018-05-09T11:28:16.917Z,26.03
2018-05-09T11:29:16.943Z,26.04
2018-05-09T11:30:16.976Z,26.09
2018-05-09T11:31:17.002Z,26.17
2018-05-09T11:32:17.040Z,26.13
2018-05-09T11:33:17.046Z,26.11
2018-05-09T11:34:17.073Z,26.04
2018-05-09T11:35:17.101Z,26.12
2018-05-09T11:36:17.152Z,26.04
2018-05-09T11:37:17.159Z,26.11
2018-05-09T11:38:17.207Z,26.08
2018-05-09T11:39:17.228Z,26.13
2018-05-09T11:40:17.224Z,26.08
2018-05-09T11:41:17.258Z,26.03
2018-05-09T11:42:17.284Z,26.06
2018-05-09T11:43:17.340Z,26.09
2018-05-09T11:44:17.333Z,26.00
2018-05-09T11:45:17.381Z,26.03
2018-05-09T11:46:17.425Z,26.13
2018-05-09T11:47:17.467Z,26.13
2018-05-09T11:48:17.447Z,26.16
2018-05-09T11:49:17.471Z,26.20
2018-05-09T11:50:17.498Z,26.19
2018-05-09T11:51:17.524Z,26.20
2018-05-09T11:52:17.552Z,26.20
2018-05-09T11:53:17.742Z,26.12
2018-05-09T11:54:17.603Z,26.19
2018-05-09T11:55:17.641Z,26.21
2018-05-09T11:56:17.650Z,26.27
2018-05-09T11:57:17.693Z,26.23
2018-05-09T11:58:17.707Z,26.28
2018-05-09T11:59:17.746Z,26.28
2018-05-09T12:00:17.791Z,26.28
2018-05-09T12:01:17.790Z,26.31
2018-05-09T12:02:18.053Z,26.31
2018-05-09T12:03:17.839Z,26.35
2018-05-09T12:04:17.872Z,26.29
2018-05-09T12:05:17.892Z,26.38
2018-05-09T12:06:18.076Z,26.35
2018-05-09T12:07:17.959Z,26.39
2018-05-09T12:08:18.067Z,26.32
2018-05-09T12:09:18.019Z,26.42
2018-05-09T12:10:18.042Z,26.42
2018-05-09T12:11:18.073Z,26.32
2018-05-09T12:12:18.089Z,26.35
2018-05-09T12:13:18.110Z,26.31
2018-05-09T12:14:18.180Z,26.28
2018-05-09T12:15:18.157Z,26.23
2018-05-09T12:16:18.241Z,26.23
2018-05-09T12:17:18.275Z,26.17
2018-05-09T12:18:18.248Z,26.28
2018-05-09T12:19:18.280Z,26.39
2018-05-09T12:20:18.294Z,26.39
2018-05-09T12:21:18.320Z,26.42
2018-05-09T12:22:18.349Z,26.35
2018-05-09T12:23:18.382Z,26.28
2018-05-09T12:24:18.401Z,26.28
2018-05-09T12:25:18.442Z,26.31
2018-05-09T12:26:18.499Z,26.31
2018-05-09T12:27:18.500Z,26.38
2018-05-09T12:28:18.511Z,26.46
2018-05-09T12:29:18.541Z,26.53
2018-05-09T12:30:18.567Z,26.50
2018-05-09T12:31:18.608Z,26.41
2018-05-09T12:32:18.616Z,26.44
2018-05-09T12:33:18.644Z,26.44
2018-05-09T12:34:18.673Z,26.56
2018-05-09T12:35:18.695Z,26.53
2018-05-09T12:36:18.725Z,26.53
2018-05-09T12:37:18.794Z,26.56
2018-05-09T12:38:18.780Z,26.54
2018-05-09T12:39:18.811Z,26.61
2018-05-09T12:40:18.839Z,26.51
2018-05-09T12:41:18.903Z,26.54
2018-05-09T12:42:18.884Z,26.50
2018-05-09T12:43:18.912Z,26.49
2018-05-09T12:44:18.942Z,26.44
2018-05-09T12:45:18.963Z,26.39
2018-05-09T12:46:18.999Z,26.34
2018-05-09T12:47:19.026Z,26.46
2018-05-09T12:48:19.071Z,26.57
